Time;durP1;ratioP1;P1;durP2;ratioP2;P2;SDS_P1;SDS_P2;PMS_P1;PMS_P2;Temp;Humidity;BMP_temperature;BMP_pressure;BME280_temperature;BME280_humidity;BME280_pressure;Samples;Min_cycle;Max_cycle;Signal;HPM_P1;HPM_P2
2021/11/06 00:00:58;;;;;;;0.22;0.22;;;;;;;;;;5009587;28;20030;-68
2021/11/06 00:03:24;;;;;;;0.43;0.35;;;;;;;;;;5009627;28;20447;-68
2021/11/06 00:05:50;;;;;;;0.43;0.43;;;;;;;;;;5007357;28;20494;-68
2021/11/06 00:08:16;;;;;;;0.63;0.60;;;;;;;;;;5007495;28;20437;-69
2021/11/06 00:10:42;;;;;;;0.57;0.57;;;;;;;;;;5008802;28;20052;-68
2021/11/06 00:13:08;;;;;;;0.55;0.55;;;;;;;;;;5009519;28;20030;-69
2021/11/06 00:15:35;;;;;;;0.88;0.88;;;;;;;;;;5008486;28;20022;-68
2021/11/06 00:18:01;;;;;;;1.10;1.00;;;;;;;;;;5009663;28;20022;-68
2021/11/06 00:20:27;;;;;;;0.13;0.13;;;;;;;;;;5007857;28;20042;-69
2021/11/06 00:22:53;;;;;;;0.00;0.00;;;;;;;;;;5008069;28;20491;-69
2021/11/06 00:25:19;;;;;;;0.43;0.43;;;;;;;;;;5009124;28;20029;-68
2021/11/06 00:27:46;;;;;;;0.10;0.10;;;;;;;;;;5009263;28;20029;-68
2021/11/06 00:30:13;;;;;;;0.93;0.93;;;;;;;;;;5009216;28;20033;-69
2021/11/06 00:32:39;;;;;;;0.00;0.00;;;;;;;;;;5008314;28;20128;-69
2021/11/06 00:35:07;;;;;;;0.00;0.00;;;;;;;;;;5009122;28;20034;-68
2021/11/06 00:37:33;;;;;;;1.38;0.80;;;;;;;;;;5008422;28;20026;-68
2021/11/06 00:39:59;;;;;;;0.35;0.35;;;;;;;;;;5008943;28;20029;-68
2021/11/06 00:42:25;;;;;;;2.28;0.90;;;;;;;;;;4999291;28;20626;-68
2021/11/06 00:44:51;;;;;;;0.10;0.10;;;;;;;;;;5007795;28;20109;-68
2021/11/06 00:47:17;;;;;;;0.57;0.43;;;;;;;;;;5009025;28;20153;-69
2021/11/06 00:49:43;;;;;;;0.52;0.28;;;;;;;;;;5008429;28;20033;-69
2021/11/06 00:52:09;;;;;;;0.20;0.20;;;;;;;;;;5008491;28;20022;-68
2021/11/06 00:54:35;;;;;;;0.10;0.10;;;;;;;;;;5008515;28;20022;-69
2021/11/06 00:57:01;;;;;;;1.70;1.15;;;;;;;;;;5008634;28;20444;-68
2021/11/06 00:59:27;;;;;;;0.00;0.00;;;;;;;;;;5007963;28;20108;-69
2021/11/06 01:01:53;;;;;;;1.30;0.63;;;;;;;;;;5008183;28;20082;-69
2021/11/06 01:04:19;;;;;;;0.15;0.15;;;;;;;;;;5007956;28;20038;-69
2021/11/06 01:06:45;;;;;;;0.57;0.57;;;;;;;;;;5008470;28;20120;-68
2021/11/06 01:09:11;;;;;;;0.10;0.10;;;;;;;;;;5008605;28;20117;-68
2021/11/06 01:11:37;;;;;;;0.88;0.88;;;;;;;;;;5008453;28;20022;-69
2021/11/06 01:14:03;;;;;;;0.55;0.55;;;;;;;;;;5008735;28;20132;-68
2021/11/06 01:16:29;;;;;;;1.25;1.15;;;;;;;;;;5007373;28;20049;-68
2021/11/06 01:18:55;;;;;;;0.25;0.25;;;;;;;;;;5008079;28;20050;-69
2021/11/06 01:21:21;;;;;;;0.80;0.57;;;;;;;;;;5006906;28;20061;-68
2021/11/06 01:23:47;;;;;;;0.30;0.30;;;;;;;;;;5007731;28;20087;-68
2021/11/06 01:26:13;;;;;;;5.68;1.90;;;;;;;;;;5007770;28;20026;-68
2021/11/06 01:28:39;;;;;;;10.98;1.52;;;;;;;;;;5007971;28;20037;-69
2021/11/06 01:31:05;;;;;;;0.93;0.93;;;;;;;;;;5008204;28;20084;-68
2021/11/06 01:33:31;;;;;;;0.40;0.40;;;;;;;;;;5007083;28;20488;-69
2021/11/06 01:35:57;;;;;;;0.22;0.22;;;;;;;;;;5008782;28;20057;-68
2021/11/06 01:38:23;;;;;;;0.25;0.25;;;;;;;;;;5008599;28;20034;-68
2021/11/06 01:40:49;;;;;;;0.15;0.15;;;;;;;;;;5008418;28;20034;-69
2021/11/06 01:43:15;;;;;;;0.00;0.00;;;;;;;;;;5008164;28;20198;-69
2021/11/06 01:45:42;;;;;;;0.85;0.85;;;;;;;;;;5008504;28;20458;-69
2021/11/06 01:48:08;;;;;;;0.45;0.45;;;;;;;;;;5009264;28;20440;-68
2021/11/06 01:50:34;;;;;;;0.32;0.32;;;;;;;;;;5008358;28;20054;-69
2021/11/06 01:53:00;;;;;;;0.10;0.10;;;;;;;;;;5010089;28;20434;-68
2021/11/06 01:55:26;;;;;;;0.60;0.60;;;;;;;;;;5008364;28;20030;-69
2021/11/06 01:57:53;;;;;;;0.35;0.35;;;;;;;;;;5008976;28;20029;-68
2021/11/06 02:00:24;;;;;;;1.02;0.30;;;;;;;;;;5012469;28;20132;-69
2021/11/06 02:02:51;;;;;;;0.77;0.70;;;;;;;;;;5012565;28;20036;-69
2021/11/06 02:05:17;;;;;;;10.98;1.17;;;;;;;;;;5013058;28;20091;-68
2021/11/06 02:07:43;;;;;;;0.30;0.30;;;;;;;;;;5011207;28;20026;-68
2021/11/06 02:10:10;;;;;;;0.22;0.22;;;;;;;;;;5012050;28;20029;-68
2021/11/06 02:12:36;;;;;;;0.65;0.65;;;;;;;;;;5011785;28;20030;-68
2021/11/06 02:15:03;;;;;;;0.38;0.38;;;;;;;;;;5010741;28;20167;-68
2021/11/06 02:17:29;;;;;;;5.78;0.52;;;;;;;;;;5011188;28;20025;-68
2021/11/06 02:19:55;;;;;;;0.38;0.30;;;;;;;;;;5010387;28;20684;-69
2021/11/06 02:22:21;;;;;;;0.45;0.45;;;;;;;;;;5011991;28;20040;-69
2021/11/06 02:24:47;;;;;;;1.02;0.50;;;;;;;;;;5010435;28;20030;-68
2021/11/06 02:27:13;;;;;;;0.98;0.98;;;;;;;;;;5011297;28;20048;-68
2021/11/06 02:29:39;;;;;;;0.52;0.52;;;;;;;;;;5010957;28;20476;-69
2021/11/06 02:32:06;;;;;;;1.70;1.58;;;;;;;;;;5010422;28;20564;-68
2021/11/06 02:34:33;;;;;;;0.38;0.38;;;;;;;;;;5010936;28;20121;-68
2021/11/06 02:36:59;;;;;;;0.45;0.40;;;;;;;;;;5010895;28;20038;-68
2021/11/06 02:39:25;;;;;;;0.10;0.10;;;;;;;;;;5010710;28;20112;-69
2021/11/06 02:42:01;;;;;;;0.90;0.57;;;;;;;;;;5010135;28;20026;-68
2021/11/06 02:44:27;;;;;;;3.30;1.55;;;;;;;;;;5005872;28;20030;-68
2021/11/06 02:46:53;;;;;;;0.65;0.65;;;;;;;;;;5010581;28;20138;-68
2021/11/06 02:49:19;;;;;;;0.80;0.70;;;;;;;;;;5010646;28;20436;-68
2021/11/06 02:51:45;;;;;;;0.45;0.45;;;;;;;;;;5009985;28;20060;-68
2021/11/06 02:54:11;;;;;;;0.98;0.80;;;;;;;;;;5010904;28;20158;-68
2021/11/06 02:56:37;;;;;;;0.75;0.38;;;;;;;;;;5009918;28;20033;-67
2021/11/06 02:59:03;;;;;;;0.43;0.43;;;;;;;;;;5010595;28;20034;-68
2021/11/06 03:01:29;;;;;;;0.28;0.28;;;;;;;;;;5010614;28;20022;-69
2021/11/06 03:03:55;;;;;;;0.35;0.35;;;;;;;;;;5010784;28;20079;-69
2021/11/06 03:06:21;;;;;;;0.32;0.32;;;;;;;;;;5009674;28;20038;-68
2021/11/06 03:08:47;;;;;;;1.35;0.47;;;;;;;;;;5009747;28;20153;-68
2021/11/06 03:11:13;;;;;;;3.63;2.20;;;;;;;;;;5011849;28;20026;-68
2021/11/06 03:13:40;;;;;;;0.93;0.63;;;;;;;;;;5009636;28;20057;-68
2021/11/06 03:16:09;;;;;;;0.32;0.32;;;;;;;;;;5010073;28;20030;-68
2021/11/06 03:18:36;;;;;;;0.85;0.40;;;;;;;;;;5009521;28;20029;-68
2021/11/06 03:21:01;;;;;;;0.10;0.10;;;;;;;;;;5010203;28;20052;-68
2021/11/06 03:23:28;;;;;;;0.38;0.38;;;;;;;;;;5010426;28;20033;-69
2021/11/06 03:25:54;;;;;;;6.43;1.23;;;;;;;;;;5009593;28;20022;-69
2021/11/06 03:28:20;;;;;;;0.98;0.57;;;;;;;;;;5010753;28;20041;-68
2021/11/06 03:30:46;;;;;;;0.65;0.50;;;;;;;;;;5010001;28;20481;-69
2021/11/06 03:33:12;;;;;;;1.80;0.47;;;;;;;;;;5009896;28;20022;-68
2021/11/06 03:35:38;;;;;;;0.52;0.52;;;;;;;;;;5009921;28;20038;-68
2021/11/06 03:38:04;;;;;;;0.22;0.22;;;;;;;;;;5010360;28;20049;-69
2021/11/06 03:40:30;;;;;;;1.48;1.13;;;;;;;;;;5009493;28;20049;-68
2021/11/06 03:42:56;;;;;;;0.13;0.13;;;;;;;;;;5009492;28;20032;-68
2021/11/06 03:45:22;;;;;;;1.17;1.15;;;;;;;;;;5010203;28;20026;-68
2021/11/06 03:47:48;;;;;;;0.90;0.90;;;;;;;;;;5008736;28;20080;-68
2021/11/06 03:50:14;;;;;;;0.60;0.60;;;;;;;;;;5009628;28;20238;-69
2021/11/06 03:52:40;;;;;;;0.70;0.65;;;;;;;;;;5008631;28;20133;-69
2021/11/06 03:55:08;;;;;;;0.57;0.57;;;;;;;;;;5009161;28;20029;-68
2021/11/06 03:57:34;;;;;;;0.80;0.70;;;;;;;;;;5009529;28;20026;-68
2021/11/06 04:00:00;;;;;;;0.60;0.60;;;;;;;;;;5008187;28;20030;-69
2021/11/06 04:02:26;;;;;;;0.45;0.45;;;;;;;;;;5009230;28;20030;-69
2021/11/06 04:04:52;;;;;;;3.47;1.48;;;;;;;;;;5010025;28;20044;-68
2021/11/06 04:07:18;;;;;;;0.43;0.43;;;;;;;;;;5009074;28;20025;-68
2021/11/06 04:09:44;;;;;;;0.32;0.32;;;;;;;;;;5009359;28;20029;-69
2021/11/06 04:12:10;;;;;;;0.43;0.43;;;;;;;;;;5009247;28;20101;-68
2021/11/06 04:14:36;;;;;;;0.10;0.10;;;;;;;;;;5008521;28;20033;-68
2021/11/06 04:17:02;;;;;;;0.57;0.40;;;;;;;;;;5009526;28;20034;-68
2021/11/06 04:19:28;;;;;;;0.22;0.22;;;;;;;;;;5007867;28;20053;-69
2021/11/06 04:21:57;;;;;;;0.20;0.20;;;;;;;;;;5008008;28;20266;-68
2021/11/06 04:24:23;;;;;;;0.85;0.85;;;;;;;;;;5008839;28;20041;-68
2021/11/06 04:26:49;;;;;;;0.10;0.10;;;;;;;;;;5008392;28;20056;-68
2021/11/06 04:29:15;;;;;;;1.23;0.93;;;;;;;;;;5008756;28;20563;-68
2021/11/06 04:31:41;;;;;;;0.10;0.10;;;;;;;;;;5008211;28;20026;-68
2021/11/06 04:34:07;;;;;;;7.28;1.20;;;;;;;;;;5008520;28;20022;-68
2021/11/06 04:36:33;;;;;;;0.95;0.95;;;;;;;;;;5008665;28;20038;-68
2021/11/06 04:38:59;;;;;;;0.22;0.22;;;;;;;;;;5008481;28;20034;-68
2021/11/06 04:41:25;;;;;;;1.38;0.47;;;;;;;;;;5008842;28;20551;-68
2021/11/06 04:43:51;;;;;;;0.55;0.43;;;;;;;;;;5008317;28;20451;-68
2021/11/06 04:46:17;;;;;;;2.85;0.47;;;;;;;;;;5007336;28;20034;-69
2021/11/06 04:48:43;;;;;;;0.40;0.20;;;;;;;;;;5008057;28;20103;-69
2021/11/06 04:51:09;;;;;;;0.57;0.57;;;;;;;;;;5007913;28;20056;-69
2021/11/06 04:53:35;;;;;;;0.40;0.40;;;;;;;;;;5008342;28;20037;-68
2021/11/06 04:56:01;;;;;;;0.90;0.45;;;;;;;;;;5008781;28;20045;-67
2021/11/06 04:58:27;;;;;;;0.30;0.30;;;;;;;;;;5007949;28;20026;-69
2021/11/06 05:00:53;;;;;;;0.20;0.20;;;;;;;;;;5007810;28;20045;-69
2021/11/06 05:03:19;;;;;;;0.10;0.10;;;;;;;;;;5007857;28;20038;-70
2021/11/06 05:05:45;;;;;;;2.45;1.88;;;;;;;;;;5012398;28;20026;-68
2021/11/06 05:08:11;;;;;;;2.20;0.70;;;;;;;;;;5002010;28;20374;-68
2021/11/06 05:10:37;;;;;;;0.20;0.20;;;;;;;;;;5008094;28;20029;-68
2021/11/06 05:13:03;;;;;;;0.10;0.10;;;;;;;;;;5008429;28;20481;-68
2021/11/06 05:15:30;;;;;;;0.90;0.90;;;;;;;;;;5006690;28;20037;-67
2021/11/06 05:17:56;;;;;;;2.20;0.63;;;;;;;;;;5007608;28;20030;-68
2021/11/06 05:20:22;;;;;;;0.00;0.00;;;;;;;;;;5009502;28;20046;-69
2021/11/06 05:22:48;;;;;;;0.68;0.68;;;;;;;;;;5008710;28;20029;-68
2021/11/06 05:25:14;;;;;;;0.10;0.10;;;;;;;;;;5008898;28;20505;-69
2021/11/06 05:27:40;;;;;;;0.60;0.60;;;;;;;;;;5007265;28;20377;-68
2021/11/06 05:30:07;;;;;;;0.00;0.00;;;;;;;;;;5008215;28;20547;-68
2021/11/06 05:32:34;;;;;;;1.55;1.00;;;;;;;;;;5009186;28;20444;-69
2021/11/06 05:35:00;;;;;;;0.30;0.30;;;;;;;;;;5012449;28;20500;-68
2021/11/06 05:37:26;;;;;;;0.10;0.10;;;;;;;;;;5010629;28;20026;-68
2021/11/06 05:39:52;;;;;;;0.35;0.35;;;;;;;;;;5011037;28;20046;-68
2021/11/06 05:42:17;;;;;;;0.10;0.10;;;;;;;;;;5011956;28;20762;-68
2021/11/06 05:44:43;;;;;;;0.10;0.10;;;;;;;;;;5011747;28;20096;-69
2021/11/06 05:47:09;;;;;;;0.08;0.08;;;;;;;;;;5011927;28;20104;-68
2021/11/06 05:49:35;;;;;;;0.05;0.05;;;;;;;;;;5010799;28;20030;-68
2021/11/06 05:52:01;;;;;;;0.70;0.57;;;;;;;;;;5011917;28;20032;-69
2021/11/06 05:54:27;;;;;;;1.30;1.20;;;;;;;;;;5011082;28;20030;-69
2021/11/06 05:56:53;;;;;;;0.00;0.00;;;;;;;;;;5013005;28;20045;-68
2021/11/06 05:59:19;;;;;;;0.10;0.10;;;;;;;;;;5010233;28;20041;-68
2021/11/06 06:01:45;;;;;;;0.00;0.00;;;;;;;;;;5012634;28;20113;-69
2021/11/06 06:04:11;;;;;;;0.05;0.05;;;;;;;;;;5011211;28;20048;-68
2021/11/06 06:06:37;;;;;;;0.00;0.00;;;;;;;;;;4999621;28;20034;-68
2021/11/06 06:09:03;;;;;;;0.17;0.17;;;;;;;;;;5010636;28;20037;-69
2021/11/06 06:11:29;;;;;;;0.03;0.03;;;;;;;;;;5011536;28;20022;-69
2021/11/06 06:13:55;;;;;;;0.13;0.13;;;;;;;;;;5010860;28;20044;-68
2021/11/06 06:16:21;;;;;;;1.00;0.50;;;;;;;;;;5011293;28;20109;-69
2021/11/06 06:18:47;;;;;;;0.45;0.35;;;;;;;;;;5010361;28;20018;-69
2021/11/06 06:21:13;;;;;;;0.45;0.45;;;;;;;;;;5011203;28;20060;-69
2021/11/06 06:23:39;;;;;;;0.25;0.25;;;;;;;;;;5011142;28;20079;-69
2021/11/06 06:26:05;;;;;;;0.10;0.10;;;;;;;;;;5010698;28;20072;-68
2021/11/06 06:28:31;;;;;;;0.35;0.32;;;;;;;;;;5010984;28;20496;-68
2021/11/06 06:30:57;;;;;;;0.00;0.00;;;;;;;;;;5016278;28;20045;-68
2021/11/06 06:33:23;;;;;;;0.15;0.15;;;;;;;;;;5010810;28;20021;-68
2021/11/06 06:35:49;;;;;;;0.20;0.20;;;;;;;;;;5011069;28;20021;-68
2021/11/06 06:38:15;;;;;;;0.80;0.55;;;;;;;;;;5013598;28;20041;-69
2021/11/06 06:40:41;;;;;;;0.63;0.55;;;;;;;;;;5010224;28;20112;-69
2021/11/06 06:43:07;;;;;;;1.30;1.20;;;;;;;;;;5010843;28;20037;-69
2021/11/06 06:45:32;;;;;;;0.15;0.15;;;;;;;;;;5010855;28;20050;-68
2021/11/06 06:47:59;;;;;;;0.00;0.00;;;;;;;;;;5010728;28;20030;-68
2021/11/06 06:50:25;;;;;;;0.25;0.22;;;;;;;;;;5011507;28;20657;-69
2021/11/06 06:52:51;;;;;;;19.50;3.92;;;;;;;;;;5010851;28;20117;-68
2021/11/06 06:55:17;;;;;;;7.88;0.73;;;;;;;;;;5010067;28;20053;-68
2021/11/06 06:57:44;;;;;;;0.93;0.88;;;;;;;;;;5010452;28;20036;-69
2021/11/06 07:00:11;;;;;;;0.00;0.00;;;;;;;;;;5010034;28;20440;-69
2021/11/06 07:02:37;;;;;;;1.85;0.65;;;;;;;;;;5010679;28;20056;-68
2021/11/06 07:05:04;;;;;;;0.68;0.68;;;;;;;;;;5020352;28;20109;-69
2021/11/06 07:07:30;;;;;;;0.40;0.40;;;;;;;;;;5010230;28;20026;-68
2021/11/06 07:09:56;;;;;;;10.15;0.98;;;;;;;;;;5008705;28;20117;-68
2021/11/06 07:12:23;;;;;;;0.17;0.17;;;;;;;;;;5020165;28;20108;-69
2021/11/06 07:14:49;;;;;;;5.05;1.00;;;;;;;;;;5010402;28;20038;-68
2021/11/06 07:17:15;;;;;;;1.20;0.43;;;;;;;;;;5013728;28;20113;-69
2021/11/06 07:19:41;;;;;;;4.57;0.32;;;;;;;;;;5010370;28;20037;-68
2021/11/06 07:22:07;;;;;;;0.55;0.47;;;;;;;;;;5012042;28;20034;-69
2021/11/06 07:24:35;;;;;;;0.25;0.25;;;;;;;;;;5009930;28;20045;-70
2021/11/06 07:27:01;;;;;;;0.68;0.68;;;;;;;;;;5009966;28;20097;-70
2021/11/06 07:29:27;;;;;;;0.70;0.70;;;;;;;;;;5010239;28;20552;-70
2021/11/06 07:31:53;;;;;;;0.00;0.00;;;;;;;;;;5007991;28;20026;-69
2021/11/06 07:34:18;;;;;;;0.22;0.22;;;;;;;;;;5011220;28;20026;-69
2021/11/06 07:36:45;;;;;;;0.73;0.73;;;;;;;;;;5015486;28;20117;-69
2021/11/06 07:39:11;;;;;;;0.17;0.17;;;;;;;;;;5008377;28;20516;-70
2021/11/06 07:41:37;;;;;;;7.22;1.45;;;;;;;;;;5008824;28;20104;-71
2021/11/06 07:44:03;;;;;;;0.10;0.10;;;;;;;;;;5000877;28;20014;-70
2021/11/06 07:46:29;;;;;;;0.20;0.20;;;;;;;;;;5003883;28;20081;-70
2021/11/06 07:48:55;;;;;;;0.10;0.10;;;;;;;;;;5003379;28;20079;-70
2021/11/06 07:51:22;;;;;;;0.20;0.20;;;;;;;;;;5002600;28;20028;-70
2021/11/06 07:53:53;;;;;;;0.00;0.00;;;;;;;;;;5002796;28;20128;-69
2021/11/06 07:56:19;;;;;;;6.10;0.82;;;;;;;;;;5004647;28;21197;-69
2021/11/06 07:58:45;;;;;;;0.10;0.10;;;;;;;;;;5004375;28;20092;-69
2021/11/06 08:01:11;;;;;;;0.00;0.00;;;;;;;;;;5002316;28;20074;-70
2021/11/06 08:03:37;;;;;;;0.55;0.55;;;;;;;;;;5001005;28;20048;-70
2021/11/06 08:06:04;;;;;;;0.28;0.28;;;;;;;;;;5004065;28;20512;-69
2021/11/06 08:08:30;;;;;;;0.30;0.30;;;;;;;;;;5007825;28;20026;-69
2021/11/06 08:10:56;;;;;;;2.47;1.50;;;;;;;;;;5009116;28;20461;-69
2021/11/06 08:13:22;;;;;;;0.25;0.25;;;;;;;;;;5008141;28;20030;-69
2021/11/06 08:15:48;;;;;;;0.20;0.20;;;;;;;;;;5008801;28;20041;-70
2021/11/06 08:18:14;;;;;;;0.00;0.00;;;;;;;;;;5009294;28;20075;-69
2021/11/06 08:20:40;;;;;;;0.35;0.35;;;;;;;;;;5006895;28;20053;-70
2021/11/06 08:23:07;;;;;;;0.13;0.03;;;;;;;;;;5006631;28;20041;-69
2021/11/06 08:25:33;;;;;;;0.00;0.00;;;;;;;;;;5006895;28;20033;-70
2021/11/06 08:27:59;;;;;;;0.13;0.13;;;;;;;;;;5004715;28;20216;-70
2021/11/06 08:30:25;;;;;;;0.30;0.30;;;;;;;;;;5008864;28;20076;-69
2021/11/06 08:32:52;;;;;;;0.30;0.20;;;;;;;;;;5008710;28;20092;-69
2021/11/06 08:35:18;;;;;;;1.08;0.65;;;;;;;;;;5008632;28;20055;-70
2021/11/06 08:37:44;;;;;;;0.75;0.43;;;;;;;;;;5007405;28;20223;-70
2021/11/06 08:40:11;;;;;;;0.00;0.00;;;;;;;;;;5008680;28;20484;-69
2021/11/06 08:42:37;;;;;;;0.32;0.32;;;;;;;;;;5008563;28;20042;-70
2021/11/06 08:45:04;;;;;;;0.00;0.00;;;;;;;;;;5008428;28;20042;-70
2021/11/06 08:47:30;;;;;;;0.05;0.05;;;;;;;;;;5008952;28;20029;-69
2021/11/06 08:49:56;;;;;;;0.60;0.57;;;;;;;;;;5008361;28;20030;-69
2021/11/06 08:52:23;;;;;;;0.70;0.30;;;;;;;;;;5008354;28;20034;-69
2021/11/06 08:54:49;;;;;;;0.50;0.50;;;;;;;;;;5008962;28;20732;-70
2021/11/06 08:57:18;;;;;;;0.32;0.32;;;;;;;;;;5006942;28;20497;-70
2021/11/06 08:59:48;;;;;;;0.75;0.68;;;;;;;;;;5008261;28;20041;-70
2021/11/06 09:02:14;;;;;;;0.40;0.40;;;;;;;;;;5007610;28;20026;-70
2021/11/06 09:04:40;;;;;;;0.03;0.03;;;;;;;;;;5008519;28;20621;-70
2021/11/06 09:07:06;;;;;;;2.17;0.57;;;;;;;;;;5008550;28;20076;-69
2021/11/06 09:09:32;;;;;;;1.10;0.75;;;;;;;;;;5007125;28;20104;-70
2021/11/06 09:11:58;;;;;;;0.22;0.22;;;;;;;;;;5005315;28;20517;-73
2021/11/06 09:14:24;;;;;;;0.10;0.10;;;;;;;;;;5007349;28;20225;-73
2021/11/06 09:16:50;;;;;;;0.35;0.35;;;;;;;;;;5007012;28;20710;-73
2021/11/06 09:19:16;;;;;;;0.17;0.17;;;;;;;;;;5007028;28;20034;-76
2021/11/06 09:21:44;;;;;;;0.10;0.10;;;;;;;;;;5007731;28;20073;-74
2021/11/06 09:24:10;;;;;;;1.73;0.28;;;;;;;;;;5008355;28;20034;-75
2021/11/06 09:26:38;;;;;;;3.15;0.75;;;;;;;;;;5006260;28;20029;-69
2021/11/06 09:29:05;;;;;;;0.40;0.40;;;;;;;;;;5007527;28;20037;-68
2021/11/06 09:31:31;;;;;;;0.20;0.20;;;;;;;;;;5006097;28;20087;-69
2021/11/06 09:33:58;;;;;;;0.20;0.20;;;;;;;;;;5008308;28;20080;-69
2021/11/06 09:36:24;;;;;;;0.93;0.65;;;;;;;;;;5008113;28;20030;-69
2021/11/06 09:38:50;;;;;;;9.80;3.33;;;;;;;;;;5008083;28;20041;-69
2021/11/06 09:41:17;;;;;;;0.22;0.22;;;;;;;;;;5008118;28;20413;-70
2021/11/06 09:43:43;;;;;;;0.57;0.57;;;;;;;;;;5006999;28;20125;-70
2021/11/06 09:46:09;;;;;;;0.75;0.75;;;;;;;;;;5008604;28;20524;-69
2021/11/06 09:48:36;;;;;;;0.25;0.25;;;;;;;;;;5008212;28;20018;-69
2021/11/06 09:51:03;;;;;;;0.85;0.85;;;;;;;;;;5008085;28;20156;-69
2021/11/06 09:53:30;;;;;;;0.13;0.13;;;;;;;;;;5010967;28;20044;-69
2021/11/06 09:55:56;;;;;;;0.45;0.45;;;;;;;;;;5008536;28;20076;-69
2021/11/06 09:58:23;;;;;;;0.30;0.30;;;;;;;;;;5007171;28;20557;-69
2021/11/06 10:00:48;;;;;;;0.63;0.60;;;;;;;;;;5008328;28;20037;-68
2021/11/06 10:03:16;;;;;;;0.17;0.17;;;;;;;;;;5007135;28;20042;-69
2021/11/06 10:05:52;;;;;;;0.73;0.52;;;;;;;;;;5005802;28;20061;-68
2021/11/06 10:08:23;;;;;;;0.55;0.38;;;;;;;;;;5002704;28;20049;-70
2021/11/06 10:10:51;;;;;;;0.20;0.20;;;;;;;;;;5009179;28;20037;-69
2021/11/06 10:13:17;;;;;;;0.25;0.15;;;;;;;;;;5007153;28;20518;-70
2021/11/06 10:15:48;;;;;;;1.52;1.25;;;;;;;;;;5006402;28;20029;-70
2021/11/06 10:18:14;;;;;;;0.20;0.20;;;;;;;;;;5005858;28;20029;-69
2021/11/06 10:20:40;;;;;;;0.28;0.28;;;;;;;;;;5010667;28;20136;-70
2021/11/06 10:23:07;;;;;;;1.50;1.05;;;;;;;;;;5009568;28;20109;-70
2021/11/06 10:25:34;;;;;;;0.15;0.15;;;;;;;;;;5010635;28;20048;-69
2021/11/06 10:28:05;;;;;;;0.43;0.35;;;;;;;;;;5009849;28;20041;-69
2021/11/06 10:30:33;;;;;;;0.08;0.08;;;;;;;;;;5009549;28;20083;-70
2021/11/06 10:33:01;;;;;;;0.22;0.22;;;;;;;;;;5006270;28;20033;-75
2021/11/06 10:35:28;;;;;;;0.10;0.10;;;;;;;;;;5011220;28;20025;-73
2021/11/06 10:37:58;;;;;;;0.43;0.43;;;;;;;;;;5011289;28;20083;-69
2021/11/06 10:40:30;;;;;;;0.57;0.57;;;;;;;;;;5004123;28;20038;-69
2021/11/06 10:42:56;;;;;;;0.82;0.82;;;;;;;;;;5010620;28;20084;-70
2021/11/06 10:45:24;;;;;;;0.32;0.17;;;;;;;;;;5008218;28;20049;-73
2021/11/06 10:48:06;;;;;;;0.03;0.03;;;;;;;;;;5008686;28;20026;-73
2021/11/06 10:50:40;;;;;;;0.65;0.65;;;;;;;;;;5010279;28;20511;-72
2021/11/06 10:53:06;;;;;;;0.20;0.20;;;;;;;;;;5005744;28;20033;-73
2021/11/06 10:55:33;;;;;;;1.00;0.28;;;;;;;;;;5009608;28;20037;-73
2021/11/06 10:57:59;;;;;;;0.30;0.22;;;;;;;;;;5012852;28;20068;-73
2021/11/06 11:00:25;;;;;;;3.70;1.40;;;;;;;;;;5013038;28;20473;-73
2021/11/06 11:02:51;;;;;;;0.00;0.00;;;;;;;;;;5008415;28;20080;-76
2021/11/06 11:05:36;;;;;;;0.32;0.32;;;;;;;;;;5007050;28;20483;-73
2021/11/06 11:08:13;;;;;;;0.30;0.25;;;;;;;;;;5010014;28;20018;-73
2021/11/06 11:10:40;;;;;;;1.00;0.40;;;;;;;;;;5019117;28;20488;-73
2021/11/06 11:13:11;;;;;;;1.30;0.77;;;;;;;;;;5024165;28;20121;-73
2021/11/06 11:15:38;;;;;;;0.00;0.00;;;;;;;;;;5008492;28;20144;-73
2021/11/06 11:18:04;;;;;;;0.30;0.30;;;;;;;;;;5008326;28;20040;-72
2021/11/06 11:20:31;;;;;;;0.30;0.30;;;;;;;;;;5013754;28;20062;-71
2021/11/06 11:23:14;;;;;;;0.20;0.20;;;;;;;;;;5015045;28;20049;-72
2021/11/06 11:25:41;;;;;;;0.28;0.28;;;;;;;;;;5009686;28;20026;-72
2021/11/06 11:28:07;;;;;;;0.32;0.32;;;;;;;;;;5015871;28;20258;-72
2021/11/06 11:30:33;;;;;;;0.47;0.38;;;;;;;;;;5010548;28;20072;-72
2021/11/06 11:33:00;;;;;;;0.60;0.40;;;;;;;;;;5011107;28;20022;-72
2021/11/06 11:35:27;;;;;;;0.17;0.17;;;;;;;;;;5010524;28;20424;-72
2021/11/06 11:37:57;;;;;;;0.03;0.03;;;;;;;;;;5011667;28;20029;-73
2021/11/06 11:40:24;;;;;;;0.00;0.00;;;;;;;;;;5012281;28;20026;-72
2021/11/06 11:42:59;;;;;;;0.25;0.25;;;;;;;;;;5011196;28;20033;-71
2021/11/06 11:45:25;;;;;;;6.93;2.10;;;;;;;;;;5017615;28;20077;-72
2021/11/06 11:47:58;;;;;;;1.45;1.02;;;;;;;;;;5010951;28;20046;-72
2021/11/06 11:50:30;;;;;;;0.15;0.15;;;;;;;;;;5010427;28;20476;-73
2021/11/06 11:52:56;;;;;;;0.43;0.43;;;;;;;;;;5009720;28;20073;-73
2021/11/06 11:55:33;;;;;;;0.03;0.03;;;;;;;;;;5018123;28;20193;-73
2021/11/06 11:58:21;;;;;;;0.43;0.40;;;;;;;;;;5011568;28;20037;-73
2021/11/06 12:00:58;;;;;;;3.75;0.98;;;;;;;;;;5012913;28;20037;-72
2021/11/06 12:03:32;;;;;;;0.22;0.22;;;;;;;;;;5008519;28;20089;-73
2021/11/06 12:05:58;;;;;;;0.22;0.22;;;;;;;;;;5009358;28;20018;-73
2021/11/06 12:08:28;;;;;;;0.70;0.22;;;;;;;;;;5006468;28;20034;-73
2021/11/06 12:10:56;;;;;;;0.22;0.22;;;;;;;;;;5005941;28;20026;-73
2021/11/06 12:13:28;;;;;;;0.80;0.65;;;;;;;;;;5009182;28;20361;-73
2021/11/06 12:16:01;;;;;;;0.10;0.10;;;;;;;;;;5012492;28;20726;-73
2021/11/06 12:18:33;;;;;;;0.85;0.85;;;;;;;;;;5006808;28;21257;-73
2021/11/06 12:21:19;;;;;;;0.80;0.80;;;;;;;;;;5018352;28;20672;-73
2021/11/06 12:24:19;;;;;;;0.35;0.25;;;;;;;;;;5005484;28;20049;-73
2021/11/06 12:26:53;;;;;;;1.60;0.52;;;;;;;;;;5002756;28;20057;-72
2021/11/06 12:29:23;;;;;;;0.90;0.90;;;;;;;;;;5015453;28;20148;-71
2021/11/06 12:31:50;;;;;;;1.45;0.93;;;;;;;;;;5004982;28;20030;-72
2021/11/06 12:34:33;;;;;;;0.17;0.17;;;;;;;;;;5007491;28;20036;-72
2021/11/06 12:36:59;;;;;;;0.20;0.20;;;;;;;;;;5008591;28;20048;-75
2021/11/06 12:39:45;;;;;;;0.77;0.77;;;;;;;;;;5009926;28;20018;-75
2021/11/06 12:42:13;;;;;;;0.25;0.25;;;;;;;;;;5007671;28;20101;-75
2021/11/06 12:44:57;;;;;;;0.22;0.22;;;;;;;;;;5009334;28;20034;-75
2021/11/06 12:47:25;;;;;;;0.40;0.35;;;;;;;;;;5010060;28;20018;-75
2021/11/06 12:49:52;;;;;;;1.10;1.02;;;;;;;;;;5010532;28;20088;-75
2021/11/06 12:52:19;;;;;;;1.35;1.10;;;;;;;;;;5008512;28;20022;-76
2021/11/06 12:54:46;;;;;;;0.15;0.15;;;;;;;;;;5007111;28;20030;-75
2021/11/06 12:57:12;;;;;;;0.80;0.80;;;;;;;;;;5007135;28;20069;-75
2021/11/06 12:59:47;;;;;;;0.10;0.10;;;;;;;;;;5008247;28;20456;-75
2021/11/06 13:02:14;;;;;;;0.40;0.38;;;;;;;;;;5008285;28;20030;-75
2021/11/06 13:04:40;;;;;;;0.20;0.20;;;;;;;;;;5008889;28;20040;-75
2021/11/06 13:07:06;;;;;;;4.38;0.90;;;;;;;;;;5009003;28;20038;-75
2021/11/06 13:09:34;;;;;;;3.42;0.60;;;;;;;;;;5008557;28;20101;-76
2021/11/06 13:12:03;;;;;;;1.00;0.82;;;;;;;;;;5008280;28;20567;-75
2021/11/06 13:14:32;;;;;;;0.40;0.40;;;;;;;;;;5008041;28;20026;-75
2021/11/06 13:17:16;;;;;;;0.95;0.95;;;;;;;;;;5006490;28;20113;-76
2021/11/06 13:19:44;;;;;;;0.45;0.45;;;;;;;;;;5008677;28;20030;-73
2021/11/06 13:22:11;;;;;;;0.32;0.32;;;;;;;;;;5007298;28;20032;-74
2021/11/06 13:24:57;;;;;;;0.10;0.10;;;;;;;;;;5004851;28;20088;-73
2021/11/06 13:27:43;;;;;;;0.55;0.55;;;;;;;;;;5008024;28;20022;-74
2021/11/06 13:30:13;;;;;;;0.10;0.10;;;;;;;;;;5007762;28;20085;-73
2021/11/06 13:32:57;;;;;;;0.35;0.35;;;;;;;;;;5012361;28;20061;-74
2021/11/06 13:35:25;;;;;;;0.13;0.13;;;;;;;;;;5007087;28;20026;-74
2021/11/06 13:38:10;;;;;;;0.20;0.20;;;;;;;;;;5005516;28;20053;-74
2021/11/06 13:41:02;;;;;;;0.30;0.30;;;;;;;;;;5005471;28;20026;-74
2021/11/06 13:43:34;;;;;;;0.20;0.20;;;;;;;;;;5008146;28;20046;-74
2021/11/06 13:46:20;;;;;;;0.32;0.32;;;;;;;;;;5006630;28;20018;-74
2021/11/06 13:49:05;;;;;;;0.20;0.20;;;;;;;;;;5007352;28;20535;-75
2021/11/06 13:51:33;;;;;;;0.50;0.50;;;;;;;;;;5006882;28;20037;-74
2021/11/06 13:54:18;;;;;;;1.10;0.82;;;;;;;;;;5008883;28;20058;-74
2021/11/06 13:56:52;;;;;;;0.08;0.08;;;;;;;;;;5012426;28;20503;-75
2021/11/06 13:59:20;;;;;;;0.70;0.40;;;;;;;;;;5013115;28;20038;-75
2021/11/06 14:01:47;;;;;;;0.20;0.20;;;;;;;;;;5007288;28;20377;-74
2021/11/06 14:04:13;;;;;;;0.10;0.10;;;;;;;;;;5025309;28;20038;-74
2021/11/06 14:06:43;;;;;;;0.20;0.20;;;;;;;;;;5011819;28;20040;-74
2021/11/06 14:09:09;;;;;;;0.20;0.20;;;;;;;;;;5011026;28;20021;-74
2021/11/06 14:11:49;;;;;;;6.05;0.50;;;;;;;;;;5009369;28;20033;-74
2021/11/06 14:14:15;;;;;;;0.10;0.10;;;;;;;;;;5011744;28;20029;-74
2021/11/06 14:16:41;;;;;;;0.10;0.10;;;;;;;;;;5011953;28;20026;-74
2021/11/06 14:19:08;;;;;;;0.20;0.20;;;;;;;;;;5011379;28;20380;-74
2021/11/06 14:21:39;;;;;;;0.00;0.00;;;;;;;;;;5011590;28;20056;-74
2021/11/06 14:24:05;;;;;;;0.03;0.03;;;;;;;;;;5010606;28;20448;-74
2021/11/06 14:26:31;;;;;;;0.28;0.28;;;;;;;;;;5011765;28;20026;-74
2021/11/06 14:28:58;;;;;;;0.00;0.00;;;;;;;;;;5011472;28;20400;-74
2021/11/06 14:31:28;;;;;;;0.00;0.00;;;;;;;;;;5011701;28;20026;-74
2021/11/06 14:33:55;;;;;;;0.10;0.10;;;;;;;;;;5011363;28;20022;-73
2021/11/06 14:36:23;;;;;;;0.00;0.00;;;;;;;;;;5010952;28;20393;-74
2021/11/06 14:39:00;;;;;;;0.20;0.20;;;;;;;;;;5011534;28;20041;-74
2021/11/06 14:41:28;;;;;;;1.92;0.80;;;;;;;;;;5011337;28;20485;-73
2021/11/06 14:43:54;;;;;;;0.10;0.10;;;;;;;;;;5010787;28;20109;-74
2021/11/06 14:46:40;;;;;;;0.25;0.20;;;;;;;;;;5014159;28;20141;-74